Time;durP1;ratioP1;P1;durP2;ratioP2;P2;SDS_P1;SDS_P2;PMS_P1;PMS_P2;Temp;Humidity;BMP_temperature;BMP_pressure;BME280_temperature;BME280_humidity;BME280_pressure;Samples;Min_cycle;Max_cycle;Signal;HPM_P1;HPM_P2
2024/02/03 00:02:30;;;;;;;27.70;9.70;;;;;;;1.41;68.58;101003.23;122752;1102;104470;-77
2024/02/03 00:05:01;;;;;;;27.55;10.25;;;;;;;1.43;68.42;100997.41;122734;1102;104277;-77
2024/02/03 00:07:32;;;;;;;28.45;9.25;;;;;;;1.45;68.88;101000.12;122761;1102;104358;-77
2024/02/03 00:10:04;;;;;;;30.90;9.70;;;;;;;1.46;68.89;100986.38;122665;1102;104252;-77
2024/02/03 00:12:35;;;;;;;28.27;8.80;;;;;;;1.48;68.87;100994.27;122658;1102;104328;-77
2024/02/03 00:15:08;;;;;;;23.93;9.17;;;;;;;1.51;69.04;101000.61;122819;1102;104492;-77
2024/02/03 00:17:40;;;;;;;26.17;9.20;;;;;;;1.54;68.55;100993.09;122789;1102;104422;-76
2024/02/03 00:20:14;;;;;;;26.20;9.05;;;;;;;1.57;69.04;100995.92;122802;1102;104281;-76
2024/02/03 00:22:45;;;;;;;28.57;9.48;;;;;;;1.60;68.80;100990.97;122878;1101;104741;-77
2024/02/03 00:25:17;;;;;;;26.67;9.93;;;;;;;1.65;68.87;100990.44;122666;1102;104271;-77
2024/02/03 00:27:48;;;;;;;28.87;10.37;;;;;;;1.66;68.85;100990.56;122668;1102;104418;-77
2024/02/03 00:30:20;;;;;;;29.83;9.80;;;;;;;1.66;68.70;100990.56;122674;1102;104370;-78
2024/02/03 00:32:51;;;;;;;28.10;8.90;;;;;;;1.69;68.43;100997.67;122720;1102;104341;-78
2024/02/03 00:35:22;;;;;;;28.00;9.77;;;;;;;1.70;68.85;100986.52;122753;1102;104227;-78
2024/02/03 00:37:53;;;;;;;24.40;8.93;;;;;;;1.71;68.79;100984.05;122708;1102;104325;-77
2024/02/03 00:40:24;;;;;;;31.40;9.43;;;;;;;1.72;68.35;100978.11;122714;1103;104450;-78
2024/02/03 00:42:55;;;;;;;24.33;8.70;;;;;;;1.74;68.69;100970.47;122689;1102;104284;-78
2024/02/03 00:45:27;;;;;;;28.20;9.60;;;;;;;1.75;69.06;100978.34;122731;1102;104236;-78
2024/02/03 00:47:58;;;;;;;24.53;8.30;;;;;;;1.77;68.77;100976.77;122836;1102;104255;-77
2024/02/03 00:50:29;;;;;;;23.67;7.67;;;;;;;1.77;68.59;100981.06;122758;1102;104283;-77
2024/02/03 00:53:01;;;;;;;26.80;7.63;;;;;;;1.75;68.94;100969.69;122727;1102;104316;-77
2024/02/03 00:55:32;;;;;;;24.75;6.85;;;;;;;1.76;68.82;100964.64;122958;1102;104287;-76
2024/02/03 00:58:03;;;;;;;24.27;6.93;;;;;;;1.78;68.60;100972.52;122744;1102;104255;-78
2024/02/03 01:00:34;;;;;;;17.70;6.33;;;;;;;1.78;68.81;100972.52;122700;1102;104370;-76
2024/02/03 01:03:06;;;;;;;19.07;6.30;;;;;;;1.76;69.00;100964.64;122720;1102;104315;-76
2024/02/03 01:05:39;;;;;;;22.77;6.63;;;;;;;1.71;68.32;100963.35;122680;1105;117747;-78
2024/02/03 01:08:10;;;;;;;19.30;6.93;;;;;;;1.72;68.75;100959.10;122679;1102;104390;-77
2024/02/03 01:10:41;;;;;;;20.90;6.53;;;;;;;1.71;68.57;100950.42;122698;1102;104313;-77
2024/02/03 01:13:13;;;;;;;23.03;7.40;;;;;;;1.72;68.90;100954.82;122741;1102;104370;-77
2024/02/03 01:15:44;;;;;;;26.80;7.65;;;;;;;1.73;68.45;100951.46;122676;1101;104320;-77
2024/02/03 01:18:16;;;;;;;25.73;7.47;;;;;;;1.76;68.93;100943.94;122674;1102;104323;-77
2024/02/03 01:20:47;;;;;;;23.40;8.00;;;;;;;1.76;68.46;100936.18;122768;1102;104827;-77
2024/02/03 01:23:18;;;;;;;26.40;7.73;;;;;;;1.75;68.35;100930.88;122748;1102;104313;-76
2024/02/03 01:25:50;;;;;;;26.97;7.40;;;;;;;1.73;68.91;100928.17;122736;1102;113025;-77
2024/02/03 01:28:22;;;;;;;24.63;6.83;;;;;;;1.70;68.63;100930.52;122759;1102;104261;-77
2024/02/03 01:30:53;;;;;;;21.87;6.43;;;;;;;1.69;68.65;100918.36;122719;1102;104333;-77
2024/02/03 01:33:24;;;;;;;19.20;5.83;;;;;;;1.69;68.33;100913.19;122705;1102;104312;-77
2024/02/03 01:35:59;;;;;;;18.73;6.13;;;;;;;1.70;68.53;100915.00;122680;1102;104302;-77
2024/02/03 01:38:30;;;;;;;21.10;5.97;;;;;;;1.71;68.54;100910.72;122744;1102;104264;-77
2024/02/03 01:41:02;;;;;;;17.75;5.55;;;;;;;1.72;68.65;100897.01;122753;1102;104389;-77
2024/02/03 01:43:33;;;;;;;18.75;5.40;;;;;;;1.72;68.41;100900.48;122683;1102;104304;-77
2024/02/03 01:46:04;;;;;;;17.60;5.00;;;;;;;1.70;68.79;100891.72;122693;1102;104360;-77
2024/02/03 01:48:36;;;;;;;17.03;4.93;;;;;;;1.67;68.42;100875.95;122749;1102;104255;-77
2024/02/03 01:51:10;;;;;;;18.47;5.77;;;;;;;1.69;68.73;100881.25;122748;1102;104389;-77
2024/02/03 01:53:41;;;;;;;20.87;5.90;;;;;;;1.68;68.27;100872.56;122778;1102;104239;-77
2024/02/03 01:56:12;;;;;;;16.50;5.03;;;;;;;1.69;68.24;100876.08;122709;1102;104355;-78
2024/02/03 01:58:44;;;;;;;15.80;5.60;;;;;;;1.69;68.22;100879.55;122669;1102;104338;-77
2024/02/03 02:01:15;;;;;;;23.20;5.50;;;;;;;1.69;68.56;100879.55;122792;1102;104360;-78
2024/02/03 02:03:48;;;;;;;18.00;5.10;;;;;;;1.71;68.81;100877.97;122798;1102;104255;-78
2024/02/03 02:06:22;;;;;;;18.50;5.40;;;;;;;1.73;67.95;100876.42;122749;1102;104743;-78
2024/02/03 02:08:52;;;;;;;;;;;;;;;1.74;68.26;100877.32;122754;1102;104717;-78
2024/02/03 02:11:24;;;;;;;19.80;5.20;;;;;;;1.75;68.21;100882.61;122784;1105;104374;-78
2024/02/03 02:13:55;;;;;;;20.57;5.00;;;;;;;1.76;68.89;100879.25;122685;1103;104270;-78
2024/02/03 02:16:29;;;;;;;19.73;4.90;;;;;;;1.77;68.26;100868.09;122607;1102;104725;-77
2024/02/03 02:19:00;;;;;;;22.20;5.55;;;;;;;1.77;68.78;100870.69;122756;1102;104642;-78
2024/02/03 02:21:31;;;;;;;18.10;5.67;;;;;;;1.78;68.71;100867.33;122716;1105;104398;-78
2024/02/03 02:24:02;;;;;;;19.03;5.57;;;;;;;1.78;68.49;100856.09;122789;1102;104341;-77
2024/02/03 02:26:33;;;;;;;18.30;5.17;;;;;;;1.82;68.28;100844.27;122747;1102;104287;-78
2024/02/03 02:29:05;;;;;;;22.25;5.00;;;;;;;1.84;68.62;100830.67;122733;1102;104296;-78
2024/02/03 02:31:36;;;;;;;20.90;5.73;;;;;;;1.84;68.48;100825.50;122873;1102;104405;-77
2024/02/03 02:34:07;;;;;;;22.00;5.30;;;;;;;1.85;68.83;100816.92;122744;1102;104422;-77
2024/02/03 02:36:38;;;;;;;21.70;5.57;;;;;;;1.85;68.61;100813.45;122776;1102;104370;-78
2024/02/03 02:39:10;;;;;;;15.10;4.83;;;;;;;1.85;68.63;100821.21;122728;1102;104297;-77
2024/02/03 02:41:41;;;;;;;17.17;5.10;;;;;;;1.87;68.42;100809.28;122751;1102;104380;-77
2024/02/03 02:44:12;;;;;;;18.57;4.73;;;;;;;1.89;68.73;100799.97;122700;1102;104331;-77
2024/02/03 02:46:43;;;;;;;18.87;4.43;;;;;;;1.93;68.62;100792.55;122655;1102;104361;-77
2024/02/03 02:49:14;;;;;;;22.60;5.10;;;;;;;1.95;68.54;100797.84;122745;1102;104306;-77
2024/02/03 02:51:45;;;;;;;15.00;4.40;;;;;;;1.94;68.67;100791.74;122757;1102;104335;-77
2024/02/03 02:54:17;;;;;;;16.70;4.40;;;;;;;1.93;68.38;100783.86;122710;1102;104358;-77
2024/02/03 02:56:48;;;;;;;17.63;4.67;;;;;;;1.92;68.02;100787.26;122720;1102;104258;-77
2024/02/03 02:59:21;;;;;;;20.10;4.37;;;;;;;1.92;68.65;100782.97;122823;1102;104337;-77
2024/02/03 03:01:53;;;;;;;18.95;4.65;;;;;;;1.93;67.90;100781.27;122756;1102;104285;-77
2024/02/03 03:04:24;;;;;;;15.23;4.23;;;;;;;1.92;68.19;100776.91;122719;1102;104360;-77
2024/02/03 03:06:56;;;;;;;16.53;4.80;;;;;;;1.91;68.22;100770.80;122746;1102;104360;-77
2024/02/03 03:09:27;;;;;;;13.33;4.40;;;;;;;1.90;68.22;100757.75;122748;1105;104373;-77
2024/02/03 03:11:58;;;;;;;13.30;4.30;;;;;;;1.86;68.05;100748.87;122686;1102;104376;-77
2024/02/03 03:14:29;;;;;;;15.07;4.40;;;;;;;1.82;68.26;100751.12;122727;1102;104357;-77
2024/02/03 03:17:00;;;;;;;19.03;4.53;;;;;;;1.79;68.44;100739.77;122693;1102;104303;-77
2024/02/03 03:19:36;;;;;;;18.47;5.20;;;;;;;1.75;68.20;100740.31;122779;1102;104358;-77
2024/02/03 03:22:07;;;;;;;15.80;4.53;;;;;;;1.72;68.18;100741.77;122758;1102;104284;-77
2024/02/03 03:24:38;;;;;;;16.45;4.80;;;;;;;1.70;68.16;100735.56;122772;1102;104399;-77
2024/02/03 03:27:09;;;;;;;18.43;5.17;;;;;;;1.67;68.47;100736.25;122702;1102;104363;-77
2024/02/03 03:29:40;;;;;;;18.20;4.37;;;;;;;1.66;68.07;100737.03;122724;1102;104818;-77
2024/02/03 03:32:12;;;;;;;16.07;4.53;;;;;;;1.64;68.20;100736.03;122672;1102;104281;-77
2024/02/03 03:34:43;;;;;;;16.97;4.43;;;;;;;1.63;67.99;100736.80;122685;1102;104716;-77
2024/02/03 03:37:15;;;;;;;12.70;4.40;;;;;;;1.61;67.77;100731.52;122704;1102;104701;-77
2024/02/03 03:39:48;;;;;;;17.57;5.30;;;;;;;1.60;68.12;100728.81;122691;1102;104370;-77
2024/02/03 03:42:20;;;;;;;18.48;5.33;;;;;;;1.57;68.05;100724.33;122680;1102;104370;-77
2024/02/03 03:44:52;;;;;;;16.43;5.13;;;;;;;1.55;67.68;100722.40;122724;1102;104657;-77
2024/02/03 03:47:23;;;;;;;17.53;5.20;;;;;;;1.57;68.47;100718.23;122683;1102;104258;-77
2024/02/03 03:49:54;;;;;;;21.37;5.03;;;;;;;1.53;67.88;100701.59;122836;1102;104405;-77
2024/02/03 03:52:25;;;;;;;16.20;4.60;;;;;;;1.52;68.48;100685.96;122662;1102;104385;-77
2024/02/03 03:54:56;;;;;;;15.43;5.03;;;;;;;1.52;68.45;100696.30;122740;1102;104283;-77
2024/02/03 03:57:28;;;;;;;15.93;4.47;;;;;;;1.51;68.17;100690.24;122683;1102;104441;-77
2024/02/03 03:59:59;;;;;;;15.80;5.17;;;;;;;1.51;68.37;100689.32;122726;1102;104393;-77
2024/02/03 04:02:30;;;;;;;20.60;5.43;;;;;;;1.49;68.17;100685.73;122731;1102;104507;-77
2024/02/03 04:05:01;;;;;;;18.77;4.97;;;;;;;1.50;68.34;100674.61;122718;1102;104281;-77
2024/02/03 04:07:33;;;;;;;19.93;5.50;;;;;;;1.48;68.26;100669.33;122789;1102;104261;-77
2024/02/03 04:10:05;;;;;;;18.73;5.27;;;;;;;1.45;68.14;100674.27;122723;1101;104309;-77
2024/02/03 04:12:36;;;;;;;16.83;5.40;;;;;;;1.46;68.05;100665.70;122727;1102;104264;-78
2024/02/03 04:15:11;;;;;;;18.03;5.37;;;;;;;1.47;68.32;100679.55;122766;1102;104440;-78
2024/02/03 04:17:42;;;;;;;16.57;5.37;;;;;;;1.44;68.12;100683.69;122680;1102;104712;-78
2024/02/03 04:20:14;;;;;;;17.73;5.50;;;;;;;1.40;68.06;100673.00;122780;1102;104720;-77
2024/02/03 04:22:45;;;;;;;19.67;6.03;;;;;;;1.41;68.21;100662.77;122729;1102;104318;-77
2024/02/03 04:25:16;;;;;;;20.47;5.87;;;;;;;1.42;68.34;100668.86;122742;1102;104390;-77
2024/02/03 04:27:47;;;;;;;18.60;5.90;;;;;;;1.42;68.19;100672.34;122674;1102;104322;-77
2024/02/03 04:30:19;;;;;;;20.60;5.73;;;;;;;1.43;67.90;100678.40;122685;1102;104325;-77
2024/02/03 04:32:50;;;;;;;22.03;5.73;;;;;;;1.42;67.95;100656.83;122748;1102;104262;-77
2024/02/03 04:35:21;;;;;;;16.63;4.97;;;;;;;1.41;68.20;100648.95;122954;1102;104302;-77
2024/02/03 04:37:53;;;;;;;14.87;6.30;;;;;;;1.38;68.35;100639.27;122770;1102;104255;-77
2024/02/03 04:40:24;;;;;;;20.17;5.67;;;;;;;1.36;68.18;100639.96;122752;1102;104369;-77
2024/02/03 04:42:55;;;;;;;16.50;5.27;;;;;;;1.34;68.10;100655.36;122702;1102;104236;-76
2024/02/03 04:45:26;;;;;;;18.43;5.87;;;;;;;1.36;68.53;100658.95;122696;1102;104316;-77
2024/02/03 04:47:57;;;;;;;18.90;5.40;;;;;;;1.38;68.77;100659.95;122697;1102;104755;-77
2024/02/03 04:50:28;;;;;;;18.63;6.00;;;;;;;1.40;68.63;100652.31;122713;1102;104289;-77
2024/02/03 04:53:00;;;;;;;18.23;6.17;;;;;;;1.42;68.35;100646.48;122727;1102;104284;-77
2024/02/03 04:55:31;;;;;;;16.10;5.80;;;;;;;1.46;67.85;100649.30;122734;1102;104352;-77
2024/02/03 04:58:02;;;;;;;19.75;6.20;;;;;;;1.46;68.34;100646.71;122671;1102;104354;-77
2024/02/03 05:00:33;;;;;;;17.90;5.57;;;;;;;1.47;68.23;100649.41;122693;1106;104284;-77
2024/02/03 05:03:04;;;;;;;17.37;5.73;;;;;;;1.47;68.26;100654.58;122727;1102;104711;-77
2024/02/03 05:05:35;;;;;;;19.57;6.53;;;;;;;1.49;68.48;100649.52;122756;1102;104404;-77
2024/02/03 05:08:07;;;;;;;19.70;6.47;;;;;;;1.48;68.48;100661.56;122732;1102;104339;-77
2024/02/03 05:10:38;;;;;;;20.67;6.27;;;;;;;1.46;68.57;100650.19;122755;1103;104396;-77
2024/02/03 05:13:10;;;;;;;18.17;5.63;;;;;;;1.49;68.64;100645.23;122736;1102;104364;-77
2024/02/03 05:15:41;;;;;;;20.97;5.50;;;;;;;1.51;68.01;100643.69;122800;1102;104386;-77
2024/02/03 05:18:12;;;;;;;21.70;6.60;;;;;;;1.49;67.96;100644.35;122779;1102;104357;-78
2024/02/03 05:20:43;;;;;;;23.60;6.50;;;;;;;1.48;68.40;100637.37;122680;1102;107211;-78
2024/02/03 05:23:14;;;;;;;16.30;5.90;;;;;;;1.48;68.42;100640.87;122743;1102;104255;-78
2024/02/03 05:25:46;;;;;;;23.63;6.07;;;;;;;1.51;68.57;100645.35;122743;1102;104743;-78
2024/02/03 05:28:17;;;;;;;19.80;6.57;;;;;;;1.52;68.33;100648.05;122720;1102;104377;-78
2024/02/03 05:30:48;;;;;;;21.93;6.70;;;;;;;1.54;68.70;100643.92;122664;1102;118636;-78
2024/02/03 05:33:19;;;;;;;20.63;6.53;;;;;;;1.55;68.60;100643.11;122891;1102;104261;-77
2024/02/03 05:35:50;;;;;;;20.07;7.27;;;;;;;1.55;68.83;100632.77;122715;1102;104415;-77
2024/02/03 05:38:22;;;;;;;18.90;6.67;;;;;;;1.56;68.28;100631.10;122654;1102;104312;-77
2024/02/03 05:40:53;;;;;;;25.17;7.50;;;;;;;1.58;68.72;100639.86;122774;1102;104306;-77
2024/02/03 05:43:24;;;;;;;22.80;6.85;;;;;;;1.58;68.27;100632.10;122721;1102;104363;-78
2024/02/03 05:45:55;;;;;;;19.60;6.90;;;;;;;1.56;68.67;100633.69;122708;1102;104279;-77
2024/02/03 05:48:27;;;;;;;24.47;6.90;;;;;;;1.56;68.13;100616.47;122717;1102;104331;-77
2024/02/03 05:50:58;;;;;;;21.73;7.40;;;;;;;1.56;68.56;100605.23;122728;1102;104264;-77
2024/02/03 05:53:34;;;;;;;20.03;6.90;;;;;;;1.58;68.38;100590.72;122715;1102;104367;-77
2024/02/03 05:56:07;;;;;;;22.20;7.05;;;;;;;1.59;68.50;100600.25;122752;1102;104251;-78
2024/02/03 05:58:38;;;;;;;16.30;6.35;;;;;;;1.63;68.33;100602.29;122697;1102;104357;-78
2024/02/03 06:01:09;;;;;;;20.20;7.13;;;;;;;1.67;68.44;100599.15;122686;1102;104364;-78
2024/02/03 06:03:40;;;;;;;18.30;6.70;;;;;;;1.69;68.36;100594.09;122737;1102;104360;-76
2024/02/03 06:06:11;;;;;;;19.67;6.50;;;;;;;1.72;68.47;100587.44;122802;1102;104331;-76
2024/02/03 06:08:43;;;;;;;19.27;7.33;;;;;;;1.74;68.29;100579.78;122753;1102;104379;-77
2024/02/03 06:11:14;;;;;;;20.57;7.50;;;;;;;1.75;68.67;100585.07;122867;1102;104264;-76
2024/02/03 06:13:45;;;;;;;20.80;7.55;;;;;;;1.81;68.52;100589.80;122723;1102;104306;-76
2024/02/03 06:16:17;;;;;;;21.50;7.23;;;;;;;1.86;68.83;100584.95;122900;1102;104238;-77
2024/02/03 06:18:48;;;;;;;21.20;7.37;;;;;;;1.93;68.55;100587.17;122707;1102;104251;-78
2024/02/03 06:21:19;;;;;;;23.10;7.80;;;;;;;1.97;68.24;100573.67;122743;1102;104396;-76
2024/02/03 06:23:50;;;;;;;22.17;7.83;;;;;;;2.01;68.41;100561.84;122698;1102;104431;-76
2024/02/03 06:26:22;;;;;;;22.83;7.77;;;;;;;2.04;68.42;100562.98;122715;1102;104734;-76
2024/02/03 06:28:53;;;;;;;20.73;7.27;;;;;;;2.06;68.63;100563.97;122740;1102;104341;-77
2024/02/03 06:31:24;;;;;;;21.73;8.30;;;;;;;2.10;68.14;100554.72;122732;1102;104361;-77
2024/02/03 06:33:55;;;;;;;22.60;8.30;;;;;;;2.13;68.26;100550.65;122712;1102;104871;-77
2024/02/03 06:36:26;;;;;;;21.30;8.37;;;;;;;2.18;68.84;100544.91;122784;1102;104476;-77
2024/02/03 06:38:57;;;;;;;25.50;8.90;;;;;;;2.21;68.28;100533.06;122747;1102;104367;-76
2024/02/03 06:41:29;;;;;;;25.37;9.13;;;;;;;2.22;68.29;100528.80;122679;1102;104284;-77
2024/02/03 06:44:00;;;;;;;21.20;8.50;;;;;;;2.24;67.93;100522.03;122820;1102;104255;-77
2024/02/03 06:46:31;;;;;;;22.00;8.47;;;;;;;2.27;68.55;100540.37;122716;1102;104313;-77
2024/02/03 06:49:02;;;;;;;21.33;8.77;;;;;;;2.32;68.41;100533.81;122617;1102;104431;-77
2024/02/03 06:51:33;;;;;;;24.53;9.50;;;;;;;2.36;68.63;100522.88;122772;1102;104344;-76
2024/02/03 06:54:04;;;;;;;23.73;8.73;;;;;;;2.42;68.40;100525.89;122687;1102;104332;-77
2024/02/03 06:56:36;;;;;;;20.93;9.17;;;;;;;2.48;69.12;100531.49;122721;1102;104280;-77
2024/02/03 06:59:07;;;;;;;23.13;9.17;;;;;;;2.57;68.71;100522.55;122707;1102;104277;-77
2024/02/03 07:01:38;;;;;;;26.60;10.87;;;;;;;2.64;68.62;100524.77;122691;1102;104354;-76
2024/02/03 07:04:09;;;;;;;24.13;10.07;;;;;;;2.70;68.63;100512.23;122733;1101;104258;-77
2024/02/03 07:06:40;;;;;;;22.10;8.93;;;;;;;2.74;68.48;100501.25;122770;1102;104287;-78
2024/02/03 07:09:12;;;;;;;24.87;9.90;;;;;;;2.82;68.81;100500.09;122705;1103;104402;-77
2024/02/03 07:11:43;;;;;;;24.43;9.50;;;;;;;2.85;68.15;100500.30;122688;1105;104370;-77
2024/02/03 07:14:14;;;;;;;25.70;9.60;;;;;;;2.88;68.41;100503.09;122721;1102;104399;-77
2024/02/03 07:16:46;;;;;;;23.93;10.03;;;;;;;2.98;68.00;100506.30;122706;1102;104242;-77
2024/02/03 07:19:17;;;;;;;24.43;9.40;;;;;;;3.10;67.95;100504.52;122712;1102;104341;-78
2024/02/03 07:21:48;;;;;;;24.80;10.40;;;;;;;3.19;68.17;100499.89;122778;1102;104261;-77
2024/02/03 07:24:19;;;;;;;24.50;9.70;;;;;;;3.26;67.95;100489.92;122751;1102;104328;-77
2024/02/03 07:26:50;;;;;;;29.03;10.60;;;;;;;3.28;68.00;100480.56;122694;1102;104376;-77
2024/02/03 07:29:21;;;;;;;28.20;10.20;;;;;;;3.28;67.76;100486.64;122725;1102;104255;-77
2024/02/03 07:32:00;;;;;;;24.00;10.23;;;;;;;3.29;68.05;100477.16;122753;1102;104278;-78
2024/02/03 07:34:32;;;;;;;25.83;10.17;;;;;;;3.29;67.65;100479.75;122769;1102;104352;-77
2024/02/03 07:37:04;;;;;;;25.33;10.77;;;;;;;3.28;67.40;100471.08;122930;1102;104664;-78
2024/02/03 07:39:36;;;;;;;25.30;10.67;;;;;;;3.28;67.60;100463.30;122882;1102;104252;-77
2024/02/03 07:42:08;;;;;;;25.30;10.40;;;;;;;3.30;68.43;100465.98;122693;1102;104419;-77
2024/02/03 07:44:39;;;;;;;27.23;10.00;;;;;;;3.34;67.34;100475.77;122855;1102;104303;-78
2024/02/03 07:47:10;;;;;;;22.73;10.40;;;;;;;3.39;67.39;100479.55;122850;1102;104357;-77
2024/02/03 07:49:41;;;;;;;25.43;9.97;;;;;;;3.46;68.29;100471.37;122774;1102;104700;-77
2024/02/03 07:52:13;;;;;;;23.00;10.47;;;;;;;3.56;68.15;100473.73;122809;1102;104255;-77
2024/02/03 07:54:44;;;;;;;25.93;10.57;;;;;;;3.62;67.36;100465.45;122726;1102;104727;-77
2024/02/03 07:57:24;;;;;;;26.35;10.70;;;;;;;3.68;67.66;100458.05;122845;1102;104239;-78
2024/02/03 08:00:06;;;;;;;26.10;10.35;;;;;;;3.75;68.16;100449.82;122818;1102;104287;-78
2024/02/03 08:02:42;;;;;;;25.53;10.77;;;;;;;3.85;67.89;100451.31;122904;1102;104293;-78
2024/02/03 08:05:13;;;;;;;29.50;11.20;;;;;;;3.91;67.93;100456.88;122770;1102;104257;-77
2024/02/03 08:07:45;;;;;;;25.10;10.40;;;;;;;4.02;67.34;100444.56;122898;1102;104281;-77
2024/02/03 08:10:16;;;;;;;26.13;10.40;;;;;;;4.10;68.07;100442.43;122777;1104;104428;-76
2024/02/03 08:12:47;;;;;;;26.97;11.57;;;;;;;4.19;67.52;100440.39;122892;1102;104358;-77
2024/02/03 08:15:19;;;;;;;26.40;11.00;;;;;;;4.23;67.43;100439.75;122878;1102;104223;-77
2024/02/03 08:17:52;;;;;;;25.33;10.40;;;;;;;4.23;67.70;100434.55;122788;1102;104288;-77
2024/02/03 08:20:23;;;;;;;26.30;10.57;;;;;;;4.26;67.84;100434.73;122615;1102;104357;-76
2024/02/03 08:22:54;;;;;;;26.30;10.10;;;;;;;4.30;67.79;100431.53;122711;1102;104239;-76
2024/02/03 08:25:25;;;;;;;27.17;10.67;;;;;;;4.37;67.79;100424.98;122742;1102;104360;-77
2024/02/03 08:27:57;;;;;;;26.23;11.10;;;;;;;4.38;66.94;100428.47;122682;1102;104303;-77
2024/02/03 08:30:28;;;;;;;30.03;10.80;;;;;;;4.37;67.72;100427.59;122683;1102;104360;-76
2024/02/03 08:32:59;;;;;;;29.67;10.77;;;;;;;4.36;67.58;100417.98;122757;1102;104360;-77
2024/02/03 08:35:30;;;;;;;25.63;10.50;;;;;;;4.36;67.45;100411.91;122666;1102;104332;-77
2024/02/03 08:38:01;;;;;;;31.00;11.53;;;;;;;4.36;67.22;100409.30;122738;1102;104702;-77
2024/02/03 08:40:32;;;;;;;27.77;10.33;;;;;;;4.37;67.05;100411.11;122775;1101;104668;-77
2024/02/03 08:43:03;;;;;;;26.57;10.33;;;;;;;4.40;67.18;100413.89;122696;1102;104370;-76
2024/02/03 08:45:35;;;;;;;24.85;10.25;;;;;;;4.42;66.76;100413.16;122828;1102;104264;-77
2024/02/03 08:48:07;;;;;;;29.13;10.87;;;;;;;4.46;66.46;100412.54;122741;1102;104300;-77
2024/02/03 08:50:38;;;;;;;29.53;10.97;;;;;;;4.57;66.94;100409.69;122776;1102;104293;-77
2024/02/03 08:53:10;;;;;;;28.93;10.53;;;;;;;4.65;67.15;100400.62;122744;1102;104366;-77
2024/02/03 08:55:41;;;;;;;26.23;11.53;;;;;;;4.74;67.14;100397.67;122708;1102;104361;-77
2024/02/03 08:58:12;;;;;;;23.33;9.77;;;;;;;4.81;66.67;100394.59;122737;1102;104280;-76
2024/02/03 09:00:44;;;;;;;28.80;10.80;;;;;;;4.83;66.75;100399.08;122767;1102;104402;-77
2024/02/03 09:03:15;;;;;;;29.20;11.40;;;;;;;4.80;65.85;100398.91;122697;1102;104291;-77
2024/02/03 09:05:46;;;;;;;32.70;12.43;;;;;;;4.81;66.42;100390.27;122734;1102;104306;-77
2024/02/03 09:08:17;;;;;;;30.60;12.97;;;;;;;4.82;66.21;100396.39;122783;1102;104261;-77
2024/02/03 09:10:49;;;;;;;26.87;11.67;;;;;;;4.84;66.22;100394.77;122700;1103;104377;-78
2024/02/03 09:13:20;;;;;;;26.30;12.03;;;;;;;4.86;66.08;100386.25;122758;1102;104304;-77
2024/02/03 09:15:52;;;;;;;29.67;12.50;;;;;;;4.93;66.54;100376.20;122770;1102;104360;-76
2024/02/03 09:18:23;;;;;;;26.40;12.03;;;;;;;5.01;66.17;100362.80;122756;1102;104383;-76
2024/02/03 09:20:55;;;;;;;28.17;12.77;;;;;;;5.09;66.31;100352.82;122758;1102;104357;-76
2024/02/03 09:23:26;;;;;;;29.10;11.67;;;;;;;5.18;66.44;100339.44;122808;1102;104370;-77
2024/02/03 09:25:57;;;;;;;27.67;11.40;;;;;;;5.28;66.57;100346.91;122780;1102;104361;-77
2024/02/03 09:28:29;;;;;;;28.63;12.10;;;;;;;5.38;65.97;100332.72;122852;1102;104296;-77
2024/02/03 09:31:00;;;;;;;28.93;12.20;;;;;;;5.48;66.02;100327.17;122780;1102;104299;-77
2024/02/03 09:33:31;;;;;;;28.13;12.50;;;;;;;5.56;66.28;100325.89;122688;1102;105546;-76
2024/02/03 09:36:06;;;;;;;27.53;12.60;;;;;;;5.62;66.20;100321.81;122776;1105;104705;-77
2024/02/03 09:38:37;;;;;;;27.33;12.80;;;;;;;5.68;66.36;100328.23;122823;1102;104261;-76
2024/02/03 09:41:09;;;;;;;25.73;11.47;;;;;;;5.71;66.14;100330.11;122817;1102;104258;-77
2024/02/03 09:43:40;;;;;;;28.83;13.10;;;;;;;5.72;65.90;100324.98;122877;1102;104289;-77
2024/02/03 09:46:12;;;;;;;24.27;10.73;;;;;;;5.71;65.59;100317.97;122887;1102;104253;-77
2024/02/03 09:48:43;;;;;;;25.10;11.00;;;;;;;5.73;65.69;100320.66;122784;1102;104280;-77
2024/02/03 09:51:14;;;;;;;35.63;11.40;;;;;;;5.75;65.75;100303.43;122754;1101;104351;-77
2024/02/03 09:53:47;;;;;;;30.87;11.83;;;;;;;5.82;65.42;100307.23;122869;1102;104332;-78
2024/02/03 09:56:19;;;;;;;26.17;10.60;;;;;;;5.85;65.04;100295.25;122731;1102;117912;-79
2024/02/03 09:58:50;;;;;;;26.27;10.27;;;;;;;5.90;65.43;100290.28;122870;1102;104361;-77
2024/02/03 10:01:21;;;;;;;25.73;10.50;;;;;;;5.96;65.00;100276.69;122760;1102;104364;-78
2024/02/03 10:03:59;;;;;;;23.30;10.15;;;;;;;6.00;64.98;100268.23;122797;1102;104285;-79
2024/02/03 10:06:31;;;;;;;24.00;10.00;;;;;;;6.08;64.93;100278.23;123152;1102;104284;-78
2024/02/03 10:09:04;;;;;;;22.40;10.23;;;;;;;6.15;64.50;100263.78;122862;1102;104660;-78
2024/02/03 10:11:40;;;;;;;25.65;10.70;;;;;;;6.21;64.33;100264.09;123013;1102;104476;-79
2024/02/03 10:14:11;;;;;;;24.90;10.63;;;;;;;6.26;63.59;100266.92;122832;1102;104357;-78
2024/02/03 10:16:48;;;;;;;25.90;10.27;;;;;;;6.30;63.94;100245.42;122932;1102;113452;-77
2024/02/03 10:19:21;;;;;;;26.93;10.33;;;;;;;6.34;63.72;100249.94;122927;1102;105651;-77
2024/02/03 10:21:53;;;;;;;23.87;10.27;;;;;;;6.39;63.61;100240.66;122838;1102;104367;-78
2024/02/03 10:24:27;;;;;;;23.77;10.43;;;;;;;6.46;63.41;100236.62;122907;1102;104393;-77
2024/02/03 10:27:00;;;;;;;;;;;;;;;6.52;62.08;100218.67;122846;1102;104290;-78
2024/02/03 10:29:33;;;;;;;28.60;11.93;;;;;;;6.59;63.03;100205.11;122892;1102;104236;-79
2024/02/03 10:32:04;;;;;;;25.27;10.23;;;;;;;6.66;62.60;100206.28;122898;1102;104357;-79
2024/02/03 10:34:36;;;;;;;25.37;10.10;;;;;;;6.74;62.80;100199.70;122906;1102;104315;-79
2024/02/03 10:37:07;;;;;;;21.50;9.77;;;;;;;6.78;62.85;100188.59;122949;1102;104367;-78
2024/02/03 10:39:42;;;;;;;26.65;10.40;;;;;;;6.82;62.95;100198.36;122942;1102;104401;-79
2024/02/03 10:42:19;;;;;;;31.23;10.37;;;;;;;6.84;62.32;100196.70;122830;1102;104450;-79
2024/02/03 10:44:53;;;;;;;25.70;10.27;;;;;;;6.83;62.26;100202.73;122958;1102;104363;-76
2024/02/03 10:47:23;;;;;;;;;;;;;;;6.84;61.18;100209.75;123118;1102;119139;-77
2024/02/03 10:49:56;;;;;;;22.63;10.30;;;;;;;6.88;62.76;100207.28;122779;1102;104313;-77
2024/02/03 10:52:29;;;;;;;25.67;10.50;;;;;;;6.94;62.82;100203.22;122819;1102;104259;-77
2024/02/03 10:55:01;;;;;;;24.97;10.77;;;;;;;6.98;62.05;100210.37;122927;1102;104255;-78
2024/02/03 10:57:32;;;;;;;22.47;9.67;;;;;;;7.03;62.38;100194.94;122798;1102;104261;-77
2024/02/03 11:00:10;;;;;;;24.47;9.80;;;;;;;7.12;62.09;100200.56;122830;1102;104278;-78
2024/02/03 11:02:52;;;;;;;25.20;11.57;;;;;;;7.18;61.78;100187.79;122892;1105;104423;-77
2024/02/03 11:05:30;;;;;;;22.20;9.87;;;;;;;7.32;62.16;100187.48;123002;1102;104389;-77
2024/02/03 11:08:09;;;;;;;24.80;10.13;;;;;;;7.44;61.92;100184.53;122785;1102;112236;-77
2024/02/03 11:10:41;;;;;;;22.43;9.67;;;;;;;7.51;62.10;100184.86;122833;1102;104261;-78
2024/02/03 11:13:20;;;;;;;26.60;10.63;;;;;;;7.58;61.78;100174.68;122866;1102;104249;-78
2024/02/03 11:15:57;;;;;;;25.57;11.27;;;;;;;7.57;61.38;100181.59;122798;1102;104425;-77
2024/02/03 11:18:38;;;;;;;23.53;10.00;;;;;;;7.53;61.61;100190.15;122907;1102;104382;-77
2024/02/03 11:21:10;;;;;;;25.67;10.67;;;;;;;7.52;61.98;100189.23;122965;1102;104281;-77
2024/02/03 11:23:42;;;;;;;29.07;11.30;;;;;;;7.50;62.01;100192.63;123032;1104;104348;-77
2024/02/03 11:26:13;;;;;;;25.50;10.63;;;;;;;7.47;61.24;100190.77;123098;1103;104358;-78
2024/02/03 11:28:44;;;;;;;23.17;10.70;;;;;;;7.42;61.15;100180.94;122869;1102;104296;-77